Price, Texas
Current Conditions -  °F | °C
As of 1:55 PM on Sunday 21 Dec 2014 (Local Time) from KRFI Reporting Station
Overcast Overcast  
Wind Chill: 47°   Ceiling: 1100
Heat Index: 50°   Visibility: 10mi
Dew Point: 45°   Wind: 6mph
Humidity: 84%   Direction: 180°S
Pressure: 30"   Gusts: NA
Location:  32.13°N, 94.94°W
Report Text: KRFI 211955Z AUTO 18005KT 10SM BKN011 OVC018 10/07 A3000 RMK AO2 T00980072
Loading
Personal Weather Stations






























Interactive Weather Map New forecast layout! Learn more

10-Day Weather Forecast

Advertisements
Track Severe Weather on mobile